Meteo Giornale » Osservazioni meteo Stati Uniti (USA) » Twin Falls Joslin Fld-Magic Valley
ore: 22:53 - Osservazioni Meteo Twin Falls Joslin Fld-Magic Valley
Lat. 42° 28' N Lon. 114° 28' W Alt. 1265 metri s.l.m.
21 °C
Sereno
Temp. 24 Ore
8 °C
29 °C
Nord
0 Km/h
Dew point 6 °C
Umidità 37 %
Visibilità 10 Km
Il sole sorge alle ore 07:02
Il sole tramonta alle ore 20:13
| Data e Ora | Cielo e Fenomeni | T °C | DP °C | Um. % | Pres. hPa | Vis. km | Vento km/h | |
|---|---|---|---|---|---|---|---|---|
| Oggi h: 22:53 | Sereno | 21 | 6 | 37 | 1014 | 10 | N 0 | |
| Oggi h: 21:53 | Sereno | 21 | 6 | 37 | 1014 | 10 | E/SE 20.3 | |
| Oggi h: 20:53 | Sereno | 23 | 6 | 33 | 1013 | 10 | E/SE 31.5 | |
| Oggi h: 20:31 | Sereno | 26 | 2 | 20 | 1012 | 10 | E 42.6 | |
| Oggi h: 20:16 | Temporale nelle vicinanze | 24 | 4 | 27 | 1013 | 10 | E 18.5 | |
| Oggi h: 19:53 | Sereno | 26 | 4 | 24 | 1013 | 10 | SE 25.9 | |
| Oggi h: 19:39 | Foschia | 26 | 5 | 25 | 1013 | 10 | E/SE 37 | |
| Oggi h: 19:10 | Temporale nelle vicinanze | 26 | 5 | 25 | 1013 | 10 | S/SE 24 | |
| Oggi h: 18:53 | Sereno | 26 | 6 | 27 | 1013 | 10 | E/SE 11.1 | |
| Oggi h: 17:53 | Sereno | 27 | 7 | 28 | 1013 | 10 | E 13 | |
| Oggi h: 16:53 | Sereno | 29 | 4 | 20 | 1014 | 10 | E/NE 14.8 | |
| Oggi h: 15:53 | Sereno | 28 | 3 | 20 | 1014 | 10 | E/NE 16.7 | |
| Oggi h: 14:53 | Sereno | 27 | 3 | 21 | 1015 | 10 | E 16.7 | |
| Oggi h: 13:53 | Sereno | 26 | 1 | 19 | 1017 | 10 | N/NE 20.3 | |
| Oggi h: 12:53 | Sereno | 24 | -1 | 19 | 1017 | 10 | E/NE 16.7 | |
| Oggi h: 11:53 | Sereno | 22 | -1 | 21 | 1018 | 10 | NE 18.5 | |
| Oggi h: 10:53 | Sereno | 19 | 3 | 34 | 1018 | 10 | E/NE 14.8 | |
| Oggi h: 09:53 | Sereno | 17 | -3 | 25 | 1018 | 10 | NE 9.3 | |
| Oggi h: 08:53 | Sereno | 16 | -3 | 26 | 1019 | 10 | N 5.5 | |
| Oggi h: 07:53 | Sereno | 11 | -4 | 34 | 1018 | 10 | N 0 | |
| Oggi h: 06:53 | Sereno | 8 | -5 | 39 | 1018 | 10 | S 11.1 | |
| Oggi h: 05:53 | Sereno | 9 | -6 | 33 | 1018 | 10 | S/SO 13 | |
| Oggi h: 04:53 | Sereno | 12 | -6 | 27 | 1018 | 10 | S/SO 14.8 | |
| Oggi h: 03:53 | Sereno | 12 | -5 | 30 | 1018 | 10 | S/SO 16.7 | |
| Oggi h: 02:53 | Sereno | 12 | -5 | 30 | 1018 | 10 | S/SO 18.5 | |
| Oggi h: 01:53 | Sereno | 12 | -5 | 30 | 1018 | 10 | S/SO 16.7 | |
| Oggi h: 00:53 | Sereno | 13 | -5 | 28 | 1018 | 10 | S/SO 20.3 | |
| Ieri h: 23:53 | Sereno | 14 | -6 | 24 | 1018 | 10 | S/SO 20.3 | |



